Time;durP1;ratioP1;P1;durP2;ratioP2;P2;SDS_P1;SDS_P2;PMS_P1;PMS_P2;Temp;Humidity;BMP_temperature;BMP_pressure;BME280_temperature;BME280_humidity;BME280_pressure;Samples;Min_cycle;Max_cycle;Signal;HPM_P1;HPM_P2
2021/08/07 00:01:23;;;;;;;1.25;1.15;;;17.60;99.90;;;;;;4985954;28;20412;-76
2021/08/07 00:03:51;;;;;;;1.50;1.00;;;17.60;99.90;;;;;;5012691;28;21177;-76
2021/08/07 00:06:16;;;;;;;1.00;1.00;;;17.60;99.90;;;;;;4960302;28;20410;-77
2021/08/07 00:08:42;;;;;;;1.10;1.10;;;17.60;99.90;;;;;;4985773;28;20931;-76
2021/08/07 00:11:08;;;;;;;1.20;1.20;;;17.60;99.90;;;;;;5007694;28;20386;-77
2021/08/07 00:13:33;;;;;;;1.40;1.30;;;17.50;99.90;;;;;;5014790;28;20932;-76
2021/08/07 00:15:59;;;;;;;1.33;1.23;;;17.50;99.90;;;;;;4985966;28;20519;-76
2021/08/07 00:18:25;;;;;;;1.10;1.10;;;17.50;99.90;;;;;;4979334;28;20806;-76
2021/08/07 00:20:51;;;;;;;1.25;1.15;;;17.50;99.90;;;;;;4972873;28;20403;-76
2021/08/07 00:23:16;;;;;;;1.10;1.10;;;17.40;99.90;;;;;;4994027;28;20492;-76
2021/08/07 00:25:42;;;;;;;0.97;0.97;;;17.40;99.90;;;;;;4979326;28;20514;-76
2021/08/07 00:28:08;;;;;;;1.10;1.10;;;17.30;99.90;;;;;;5000697;28;20466;-75
2021/08/07 00:30:34;;;;;;;1.33;1.23;;;17.30;99.90;;;;;;4982525;28;20402;-76
2021/08/07 00:33:01;;;;;;;1.23;1.20;;;17.20;99.90;;;;;;4987883;28;20409;-77
2021/08/07 00:35:27;;;;;;;1.02;1.02;;;17.20;99.90;;;;;;4971275;28;20438;-76
2021/08/07 00:37:54;;;;;;;1.20;1.20;;;17.20;99.90;;;;;;4966632;28;20494;-76
2021/08/07 00:40:22;;;;;;;1.00;1.00;;;17.20;99.90;;;;;;4968424;28;20395;-76
2021/08/07 00:42:53;;;;;;;1.20;1.20;;;17.20;99.90;;;;;;4983734;28;20475;-76
2021/08/07 00:45:31;;;;;;;2.20;1.10;;;17.20;99.90;;;;;;4968300;28;20455;-76
2021/08/07 00:47:58;;;;;;;1.25;1.17;;;17.10;99.90;;;;;;4967475;28;20401;-75
2021/08/07 00:50:25;;;;;;;1.00;1.00;;;17.10;99.90;;;;;;4985946;28;20401;-76
2021/08/07 00:52:52;;;;;;;1.25;1.20;;;17.10;99.90;;;;;;4970350;28;20395;-75
2021/08/07 00:55:22;;;;;;;1.20;1.20;;;17.00;99.90;;;;;;4976971;28;20802;-76
2021/08/07 00:57:49;;;;;;;1.40;1.30;;;17.10;99.90;;;;;;4987006;28;20764;-76
2021/08/07 01:00:18;;;;;;;1.40;1.30;;;17.00;99.90;;;;;;4999510;28;20393;-75
2021/08/07 01:02:51;;;;;;;0.95;0.95;;;17.00;99.90;;;;;;4967672;28;20395;-76
2021/08/07 01:05:24;;;;;;;1.40;1.30;;;17.00;99.90;;;;;;4999869;28;20455;-75
2021/08/07 01:08:09;;;;;;;1.20;1.20;;;17.00;99.90;;;;;;4965325;28;20401;-75
2021/08/07 01:10:59;;;;;;;1.13;1.13;;;16.90;99.90;;;;;;5002383;28;20406;-76
2021/08/07 01:13:28;;;;;;;1.10;1.10;;;16.90;99.90;;;;;;4995287;28;20397;-77
2021/08/07 01:16:07;;;;;;;0.95;0.95;;;16.80;99.90;;;;;;4962755;28;20451;-76
2021/08/07 01:18:35;;;;;;;1.20;1.20;;;16.80;99.90;;;;;;4971051;28;20459;-76
2021/08/07 01:21:03;;;;;;;1.27;1.17;;;16.70;99.90;;;;;;4969408;28;20499;-76
2021/08/07 01:23:41;;;;;;;1.23;1.10;;;16.70;99.90;;;;;;4968397;28;20395;-77
2021/08/07 01:26:25;;;;;;;1.38;1.33;;;16.60;99.90;;;;;;4976132;28;20392;-76
2021/08/07 01:29:18;;;;;;;1.20;1.20;;;16.60;99.90;;;;;;4992380;28;20812;-75
2021/08/07 01:31:50;;;;;;;1.40;1.30;;;16.60;99.90;;;;;;4975411;28;20388;-77
2021/08/07 01:34:20;;;;;;;1.25;1.23;;;16.60;99.90;;;;;;4975895;28;20866;-75
2021/08/07 01:36:47;;;;;;;1.20;1.20;;;16.60;99.90;;;;;;4969967;28;20823;-77
2021/08/07 01:39:20;;;;;;;1.30;1.30;;;16.50;99.90;;;;;;4994245;28;20908;-76
2021/08/07 01:41:48;;;;;;;1.15;1.15;;;16.50;99.90;;;;;;4973871;28;20470;-75
2021/08/07 01:44:20;;;;;;;1.40;1.30;;;16.50;99.90;;;;;;4977161;28;20443;-76
2021/08/07 01:47:01;;;;;;;1.05;1.05;;;16.50;99.90;;;;;;5007393;28;20424;-75
2021/08/07 01:49:41;;;;;;;1.50;1.23;;;16.50;99.90;;;;;;4958446;28;20402;-76
2021/08/07 01:52:11;;;;;;;1.20;1.15;;;16.50;99.90;;;;;;4971022;28;20402;-76
2021/08/07 01:54:59;;;;;;;1.10;1.10;;;16.50;99.90;;;;;;4974839;28;20399;-77
2021/08/07 01:57:25;;;;;;;1.13;1.13;;;16.50;99.90;;;;;;4990768;28;20397;-76
2021/08/07 01:59:51;;;;;;;2.50;1.27;;;16.50;99.90;;;;;;4969918;28;20410;-76
2021/08/07 02:02:17;;;;;;;1.50;1.40;;;16.50;99.90;;;;;;4977414;28;20408;-76
2021/08/07 02:04:50;;;;;;;1.00;1.00;;;16.50;99.90;;;;;;4971588;28;20897;-76
2021/08/07 02:07:21;;;;;;;1.20;1.20;;;16.50;99.90;;;;;;4975167;28;20476;-76
2021/08/07 02:09:52;;;;;;;1.52;1.30;;;16.50;99.90;;;;;;4974566;28;20408;-76
2021/08/07 02:12:19;;;;;;;1.20;1.20;;;16.50;99.90;;;;;;4985867;28;20402;-75
2021/08/07 02:14:51;;;;;;;1.20;1.10;;;16.40;99.90;;;;;;4969369;28;20402;-76
2021/08/07 02:17:18;;;;;;;1.40;1.30;;;16.50;99.90;;;;;;4985792;28;20798;-75
2021/08/07 02:19:44;;;;;;;1.08;1.08;;;16.50;99.90;;;;;;4971529;28;20812;-76
2021/08/07 02:22:10;;;;;;;1.03;1.03;;;16.40;99.90;;;;;;4970464;28;20481;-75
2021/08/07 02:24:40;;;;;;;1.10;1.10;;;16.40;99.90;;;;;;5005668;28;20417;-76
2021/08/07 02:27:08;;;;;;;1.35;1.25;;;16.40;99.90;;;;;;4973484;28;20401;-76
2021/08/07 02:29:34;;;;;;;1.60;1.40;;;16.40;99.90;;;;;;4973365;28;20701;-75
2021/08/07 02:32:07;;;;;;;1.10;1.10;;;16.40;99.90;;;;;;4974732;28;20432;-76
2021/08/07 02:34:34;;;;;;;1.08;1.08;;;16.40;99.90;;;;;;4966144;28;20416;-77
2021/08/07 02:37:03;;;;;;;1.20;1.20;;;16.40;99.90;;;;;;4973595;28;20559;-75
2021/08/07 02:39:33;;;;;;;1.27;1.17;;;16.40;99.90;;;;;;4972583;28;20392;-76
2021/08/07 02:41:59;;;;;;;1.20;1.20;;;16.40;99.90;;;;;;4973885;28;20437;-76
2021/08/07 02:44:28;;;;;;;1.42;1.33;;;16.30;99.90;;;;;;5007166;28;20492;-75
2021/08/07 02:46:54;;;;;;;1.10;1.10;;;16.40;99.90;;;;;;4967287;28;20461;-75
2021/08/07 02:49:20;;;;;;;1.10;1.10;;;16.30;99.90;;;;;;4988487;28;20911;-76
2021/08/07 02:51:49;;;;;;;1.23;1.13;;;16.30;99.90;;;;;;4992975;28;20405;-76
2021/08/07 02:54:17;;;;;;;1.15;1.15;;;16.30;99.90;;;;;;4967301;28;20405;-76
2021/08/07 02:56:43;;;;;;;1.40;1.30;;;16.30;99.90;;;;;;4963499;28;20403;-76
2021/08/07 02:59:08;;;;;;;1.30;1.30;;;16.30;99.90;;;;;;4966168;28;20408;-75
2021/08/07 03:01:36;;;;;;;1.30;1.30;;;16.30;99.90;;;;;;4971580;28;20905;-76
2021/08/07 03:04:03;;;;;;;1.20;1.17;;;16.30;99.90;;;;;;4961964;28;20406;-76
2021/08/07 03:06:29;;;;;;;1.25;1.25;;;16.20;99.90;;;;;;5001334;28;20477;-76
2021/08/07 03:08:56;;;;;;;1.13;1.13;;;16.20;99.90;;;;;;4985303;28;20438;-75
2021/08/07 03:11:23;;;;;;;1.13;1.13;;;16.20;99.90;;;;;;5001113;28;20420;-75
2021/08/07 03:13:54;;;;;;;1.20;1.20;;;16.10;99.90;;;;;;4981627;28;20455;-76
2021/08/07 03:16:27;;;;;;;2.50;1.20;;;16.10;99.90;;;;;;4987607;28;20844;-76
2021/08/07 03:18:52;;;;;;;1.38;1.33;;;16.10;99.90;;;;;;4971825;28;20423;-75
2021/08/07 03:21:19;;;;;;;1.33;1.25;;;16.10;99.90;;;;;;4997402;28;20413;-75
2021/08/07 03:23:53;;;;;;;1.10;1.10;;;16.10;99.90;;;;;;4969401;28;20897;-75
2021/08/07 03:26:20;;;;;;;1.13;1.13;;;16.10;99.90;;;;;;4970550;28;20462;-76
2021/08/07 03:28:47;;;;;;;1.43;1.33;;;16.10;99.90;;;;;;4994885;28;20394;-76
2021/08/07 03:31:16;;;;;;;2.38;1.10;;;16.10;99.90;;;;;;4972075;28;20480;-76
2021/08/07 03:33:41;;;;;;;1.25;1.15;;;16.10;99.90;;;;;;4968474;28;20489;-76
2021/08/07 03:36:11;;;;;;;1.00;1.00;;;16.10;99.90;;;;;;4987279;28;20447;-76
2021/08/07 03:38:38;;;;;;;1.00;1.00;;;16.00;99.90;;;;;;4969457;28;20403;-75
2021/08/07 03:41:04;;;;;;;1.20;1.20;;;16.00;99.90;;;;;;4976972;28;20417;-76
2021/08/07 03:43:30;;;;;;;1.63;1.30;;;16.00;99.90;;;;;;4971002;28;20405;-76
2021/08/07 03:45:57;;;;;;;1.30;1.20;;;16.00;99.90;;;;;;4981967;28;20400;-76
2021/08/07 03:48:25;;;;;;;1.20;1.20;;;16.00;99.90;;;;;;4964748;28;20438;-76
2021/08/07 03:50:53;;;;;;;1.10;1.10;;;16.00;99.90;;;;;;4966224;28;20817;-76
2021/08/07 03:53:26;;;;;;;1.40;1.30;;;16.00;99.90;;;;;;4973937;28;20409;-75
2021/08/07 03:55:54;;;;;;;1.00;1.00;;;16.00;99.90;;;;;;4987074;28;20449;-76
2021/08/07 03:58:20;;;;;;;1.40;1.30;;;16.00;99.90;;;;;;4971044;28;20424;-76
2021/08/07 04:00:54;;;;;;;1.30;1.20;;;15.90;99.90;;;;;;4988428;28;20397;-75
2021/08/07 04:03:26;;;;;;;1.15;1.13;;;16.00;99.90;;;;;;4971722;28;20476;-75
2021/08/07 04:05:55;;;;;;;1.10;1.10;;;16.00;99.90;;;;;;4997640;28;20471;-76
2021/08/07 04:08:22;;;;;;;1.50;1.40;;;15.90;99.90;;;;;;4967432;28;20909;-76
2021/08/07 04:10:47;;;;;;;1.50;1.30;;;15.90;99.90;;;;;;4969587;28;20381;-76
2021/08/07 04:13:13;;;;;;;1.27;1.25;;;15.90;99.90;;;;;;4970299;28;20401;-75
2021/08/07 04:15:40;;;;;;;1.73;1.20;;;15.90;99.90;;;;;;4971065;28;21200;-75
2021/08/07 04:18:08;;;;;;;1.30;1.20;;;15.90;99.90;;;;;;4972119;28;20416;-77
2021/08/07 04:20:34;;;;;;;1.17;1.10;;;15.90;99.90;;;;;;4975913;28;20416;-76
2021/08/07 04:23:03;;;;;;;0.90;0.90;;;15.90;99.90;;;;;;4972078;28;21255;-76
2021/08/07 04:25:33;;;;;;;1.40;1.30;;;16.00;99.90;;;;;;4971461;28;20909;-76
2021/08/07 04:27:58;;;;;;;1.08;1.08;;;16.00;99.90;;;;;;4971350;28;20440;-76
2021/08/07 04:30:25;;;;;;;1.27;1.23;;;16.00;99.90;;;;;;4986633;28;20396;-75
2021/08/07 04:32:50;;;;;;;1.25;1.10;;;16.00;99.90;;;;;;4970821;28;20421;-77
2021/08/07 04:35:16;;;;;;;1.20;1.20;;;16.10;99.90;;;;;;4986370;28;20430;-75
2021/08/07 04:37:48;;;;;;;1.17;1.17;;;16.10;99.90;;;;;;4971343;28;20407;-75
2021/08/07 04:40:14;;;;;;;1.50;1.40;;;16.10;99.90;;;;;;4986844;28;20467;-76
2021/08/07 04:42:40;;;;;;;1.00;1.00;;;16.10;99.90;;;;;;4970139;28;20869;-76
2021/08/07 04:45:07;;;;;;;1.35;1.25;;;16.20;99.90;;;;;;4977473;28;21089;-76
2021/08/07 04:47:32;;;;;;;1.30;1.20;;;16.20;99.90;;;;;;4970786;28;20462;-76
2021/08/07 04:49:58;;;;;;;1.30;1.20;;;16.20;99.90;;;;;;4986271;28;20405;-76
2021/08/07 04:52:24;;;;;;;1.35;1.25;;;16.30;99.90;;;;;;4969715;28;20424;-76
2021/08/07 04:54:50;;;;;;;0.90;0.90;;;16.40;99.90;;;;;;4987451;28;20417;-75
2021/08/07 04:57:15;;;;;;;1.40;1.30;;;16.40;99.90;;;;;;4986333;28;20404;-77
2021/08/07 04:59:41;;;;;;;1.00;1.00;;;16.50;99.90;;;;;;4970640;28;20476;-75
2021/08/07 05:02:07;;;;;;;1.10;1.10;;;16.50;99.90;;;;;;4969718;28;20405;-75
2021/08/07 05:04:34;;;;;;;1.45;1.25;;;16.60;99.90;;;;;;4974645;28;20407;-76
2021/08/07 05:06:59;;;;;;;1.00;1.00;;;16.60;99.90;;;;;;4965177;28;20439;-76
2021/08/07 05:09:26;;;;;;;3.00;2.72;;;16.60;99.90;;;;;;4977196;28;20761;-77
2021/08/07 05:12:04;;;;;;;1.70;1.60;;;16.70;99.90;;;;;;5004565;28;20430;-75
2021/08/07 05:14:31;;;;;;;1.70;1.60;;;16.80;99.90;;;;;;4972978;28;20430;-76
2021/08/07 05:16:57;;;;;;;1.15;1.15;;;16.90;99.90;;;;;;4973059;28;20388;-76
2021/08/07 05:19:23;;;;;;;1.30;1.20;;;16.90;99.90;;;;;;4980751;28;20472;-76
2021/08/07 05:21:48;;;;;;;0.90;0.90;;;17.10;99.90;;;;;;4988525;28;20420;-76
2021/08/07 05:24:14;;;;;;;1.10;1.10;;;17.10;99.90;;;;;;4966608;28;20399;-76
2021/08/07 05:26:40;;;;;;;1.07;1.07;;;17.20;99.90;;;;;;4976330;28;20411;-75
2021/08/07 05:29:05;;;;;;;1.40;1.30;;;17.30;99.90;;;;;;4991915;28;20399;-75
2021/08/07 05:31:31;;;;;;;2.07;1.13;;;17.40;99.90;;;;;;4979903;28;20399;-76
2021/08/07 05:33:57;;;;;;;1.10;1.10;;;17.50;99.90;;;;;;4968499;28;20400;-76
2021/08/07 05:36:23;;;;;;;0.93;0.93;;;17.60;99.90;;;;;;4974925;28;20402;-76
2021/08/07 05:38:49;;;;;;;1.10;1.10;;;17.60;99.90;;;;;;4977697;28;20471;-75
2021/08/07 05:41:15;;;;;;;1.00;0.90;;;17.70;99.90;;;;;;4973482;28;20516;-76
2021/08/07 05:43:44;;;;;;;2.50;1.08;;;17.90;99.90;;;;;;4982026;28;20398;-76
2021/08/07 05:46:09;;;;;;;1.27;1.23;;;18.00;99.90;;;;;;4988053;28;20436;-77
2021/08/07 05:48:35;;;;;;;1.00;1.00;;;18.00;99.90;;;;;;5001441;28;20404;-77
2021/08/07 05:51:02;;;;;;;1.10;1.10;;;18.20;99.90;;;;;;4975854;28;20484;-77
2021/08/07 05:53:28;;;;;;;1.30;1.20;;;18.30;99.90;;;;;;4975566;28;20989;-76
2021/08/07 05:55:54;;;;;;;1.30;1.20;;;18.30;99.90;;;;;;4964599;28;20407;-76
2021/08/07 05:58:21;;;;;;;1.47;1.00;;;18.30;99.90;;;;;;5006685;28;20400;-77
2021/08/07 06:00:47;;;;;;;1.00;1.00;;;18.40;99.90;;;;;;4980644;28;20476;-77
2021/08/07 06:03:13;;;;;;;1.05;1.05;;;18.60;99.90;;;;;;4991486;28;20514;-77
2021/08/07 06:05:44;;;;;;;1.08;1.08;;;18.70;99.90;;;;;;4974069;28;20924;-76
2021/08/07 06:08:10;;;;;;;1.00;1.00;;;18.70;99.90;;;;;;4976630;28;20392;-76
2021/08/07 06:10:37;;;;;;;1.10;1.10;;;18.80;99.90;;;;;;4975489;28;20446;-76
2021/08/07 06:13:03;;;;;;;1.00;1.00;;;18.90;99.90;;;;;;4975587;28;20401;-76
2021/08/07 06:15:29;;;;;;;1.08;1.02;;;19.00;99.90;;;;;;5002415;28;20437;-76
2021/08/07 06:17:56;;;;;;;1.10;1.10;;;19.00;99.90;;;;;;5004756;28;20900;-76
2021/08/07 06:20:23;;;;;;;1.00;1.00;;;19.20;99.90;;;;;;4971216;28;20430;-75
2021/08/07 06:22:50;;;;;;;1.40;1.10;;;19.30;99.90;;;;;;4986335;28;20465;-77
2021/08/07 06:25:17;;;;;;;0.80;0.80;;;19.40;99.90;;;;;;4988582;28;20408;-77
2021/08/07 06:27:43;;;;;;;1.20;1.10;;;19.50;99.90;;;;;;4962650;28;20807;-76
2021/08/07 06:30:10;;;;;;;0.90;0.90;;;19.60;99.90;;;;;;4960183;28;20556;-76
2021/08/07 06:32:36;;;;;;;0.90;0.90;;;19.70;99.90;;;;;;4973542;28;20986;-76
2021/08/07 06:35:02;;;;;;;0.97;0.97;;;19.90;99.90;;;;;;4973960;28;20391;-76
2021/08/07 06:37:29;;;;;;;1.00;0.90;;;20.00;99.90;;;;;;4981338;28;20408;-76
2021/08/07 06:39:55;;;;;;;0.88;0.88;;;20.10;99.90;;;;;;4974959;28;20452;-76
2021/08/07 06:42:20;;;;;;;1.20;1.13;;;20.20;99.90;;;;;;4972949;28;20849;-75
2021/08/07 06:45:18;;;;;;;1.40;1.30;;;20.20;99.90;;;;;;5001501;28;20483;-76
2021/08/07 06:47:45;;;;;;;0.95;0.95;;;20.30;99.90;;;;;;4973956;28;20393;-75
2021/08/07 06:50:11;;;;;;;1.10;1.00;;;20.50;99.90;;;;;;4968902;28;20945;-75
2021/08/07 06:52:36;;;;;;;0.87;0.70;;;20.70;99.90;;;;;;4984920;28;20406;-75
2021/08/07 06:55:03;;;;;;;0.80;0.80;;;20.80;99.90;;;;;;4985835;28;20393;-75
2021/08/07 06:57:30;;;;;;;5.47;1.17;;;20.90;99.90;;;;;;4969326;28;20464;-76
2021/08/07 06:59:55;;;;;;;0.87;0.87;;;21.00;99.90;;;;;;4984876;28;20399;-76
2021/08/07 07:02:22;;;;;;;0.95;0.90;;;21.10;99.90;;;;;;4993212;28;20765;-76
2021/08/07 07:04:49;;;;;;;1.00;1.00;;;21.20;99.90;;;;;;4969491;28;20399;-75
2021/08/07 07:07:15;;;;;;;1.00;1.00;;;21.30;99.90;;;;;;4988697;28;20973;-77
2021/08/07 07:09:41;;;;;;;0.88;0.85;;;21.40;99.90;;;;;;4988738;28;20483;-77
2021/08/07 07:12:07;;;;;;;0.82;0.82;;;21.40;99.90;;;;;;4973125;28;20399;-74
2021/08/07 07:14:33;;;;;;;0.95;0.95;;;21.40;99.90;;;;;;4972494;28;20970;-75
2021/08/07 07:16:59;;;;;;;0.70;0.70;;;21.60;99.90;;;;;;4971873;28;20401;-76
2021/08/07 07:19:27;;;;;;;0.70;0.70;;;21.70;99.90;;;;;;4987002;28;20431;-75
2021/08/07 07:21:53;;;;;;;0.93;0.93;;;21.90;99.90;;;;;;4973608;28;20401;-74
2021/08/07 07:24:19;;;;;;;0.90;0.90;;;22.00;99.90;;;;;;4971401;28;21004;-76
2021/08/07 07:26:44;;;;;;;0.88;0.88;;;22.00;99.90;;;;;;4970331;28;20424;-73
2021/08/07 07:29:11;;;;;;;0.93;0.82;;;22.10;99.90;;;;;;4982905;28;20385;-75
2021/08/07 07:31:37;;;;;;;0.80;0.80;;;22.20;99.90;;;;;;4970721;28;20466;-75
2021/08/07 07:34:03;;;;;;;0.80;0.80;;;22.30;99.90;;;;;;4981587;28;20976;-75
2021/08/07 07:36:29;;;;;;;1.63;0.90;;;22.30;99.90;;;;;;4974223;28;20397;-75
2021/08/07 07:38:54;;;;;;;5.30;0.80;;;22.30;99.90;;;;;;4969189;28;20415;-75
2021/08/07 07:41:21;;;;;;;0.70;0.65;;;22.30;99.90;;;;;;5001844;28;20472;-75
2021/08/07 07:43:47;;;;;;;0.85;0.85;;;22.40;99.90;;;;;;4969023;28;20935;-75
2021/08/07 07:46:13;;;;;;;0.80;0.80;;;22.40;99.90;;;;;;5013869;28;20410;-75
2021/08/07 07:48:40;;;;;;;0.90;0.90;;;22.50;99.90;;;;;;4956458;28;20429;-76
2021/08/07 07:51:06;;;;;;;1.00;1.00;;;22.60;99.90;;;;;;4968391;28;20402;-75
2021/08/07 07:53:32;;;;;;;1.13;1.00;;;22.70;99.90;;;;;;4987935;28;21114;-75
2021/08/07 07:55:58;;;;;;;0.90;0.90;;;22.80;99.90;;;;;;4968284;28;20436;-76
2021/08/07 07:58:23;;;;;;;0.80;0.80;;;23.00;99.90;;;;;;4999807;28;20765;-75
2021/08/07 08:00:49;;;;;;;0.90;0.90;;;23.00;99.90;;;;;;4969641;28;20987;-75
2021/08/07 08:03:16;;;;;;;1.38;1.27;;;23.10;99.90;;;;;;4968944;28;20423;-76
2021/08/07 08:05:43;;;;;;;1.00;0.90;;;23.20;99.90;;;;;;4984360;28;20389;-75
2021/08/07 08:08:09;;;;;;;0.80;0.80;;;23.40;99.90;;;;;;4967832;28;20456;-76
2021/08/07 08:10:36;;;;;;;0.90;0.90;;;23.50;99.90;;;;;;4984943;28;20387;-75
2021/08/07 08:13:05;;;;;;;0.73;0.73;;;23.60;99.90;;;;;;4972344;28;20405;-75
2021/08/07 08:15:32;;;;;;;0.70;0.70;;;23.70;99.90;;;;;;4971031;28;21129;-76
2021/08/07 08:17:58;;;;;;;0.68;0.68;;;23.90;99.90;;;;;;4971556;28;20389;-75
2021/08/07 08:20:25;;;;;;;0.63;0.63;;;24.10;99.90;;;;;;4987231;28;20415;-75
2021/08/07 08:22:51;;;;;;;0.68;0.68;;;24.30;99.90;;;;;;4969017;28;20400;-75
2021/08/07 08:25:17;;;;;;;0.90;0.90;;;24.50;99.90;;;;;;4983463;28;20423;-75
2021/08/07 08:27:43;;;;;;;0.87;0.87;;;24.60;99.90;;;;;;4985750;28;20849;-75
2021/08/07 08:30:09;;;;;;;0.80;0.80;;;24.80;99.90;;;;;;4970901;28;21127;-75
2021/08/07 08:32:35;;;;;;;0.73;0.73;;;25.00;99.90;;;;;;4965079;28;20515;-75
2021/08/07 08:35:03;;;;;;;0.70;0.70;;;25.10;99.90;;;;;;4982518;28;20507;-75
2021/08/07 08:37:31;;;;;;;0.70;0.70;;;25.20;99.90;;;;;;4964175;28;20413;-74
2021/08/07 08:39:57;;;;;;;0.77;0.77;;;25.20;99.90;;;;;;4982666;28;20412;-75
2021/08/07 08:42:23;;;;;;;0.70;0.70;;;25.30;99.90;;;;;;4968809;28;20612;-75
2021/08/07 08:44:49;;;;;;;0.75;0.75;;;25.50;99.90;;;;;;4969808;28;20393;-75
2021/08/07 08:47:15;;;;;;;0.90;0.90;;;25.70;99.90;;;;;;4949942;28;20412;-75
2021/08/07 08:49:40;;;;;;;1.60;0.80;;;25.80;99.90;;;;;;4968724;28;20405;-74
2021/08/07 08:52:06;;;;;;;0.82;0.82;;;25.90;99.90;;;;;;4967757;28;20490;-74
2021/08/07 08:54:32;;;;;;;0.80;0.80;;;26.10;99.90;;;;;;4961192;28;20409;-74
2021/08/07 08:56:58;;;;;;;0.80;0.80;;;26.20;99.90;;;;;;4967257;28;20469;-75
2021/08/07 08:59:24;;;;;;;0.70;0.70;;;26.40;99.90;;;;;;4965604;28;20420;-75
2021/08/07 09:01:53;;;;;;;1.02;0.65;;;26.40;99.90;;;;;;4981653;28;20415;-75
2021/08/07 09:04:19;;;;;;;0.70;0.70;;;26.50;99.90;;;;;;4968840;28;20401;-75
2021/08/07 09:06:45;;;;;;;0.63;0.63;;;26.40;99.90;;;;;;4985953;28;20470;-75
2021/08/07 09:09:13;;;;;;;0.63;0.63;;;26.50;99.90;;;;;;4986253;28;20976;-75
2021/08/07 09:11:52;;;;;;;0.68;0.68;;;26.50;99.90;;;;;;4972562;28;20407;-75
2021/08/07 09:14:23;;;;;;;1.10;0.90;;;26.80;99.90;;;;;;4969128;28;20401;-75
2021/08/07 09:17:01;;;;;;;0.68;0.68;;;26.80;99.90;;;;;;4982048;28;20901;-74
2021/08/07 09:19:52;;;;;;;0.70;0.70;;;26.90;99.90;;;;;;5010654;28;20393;-75
2021/08/07 09:22:20;;;;;;;3.17;0.70;;;27.00;99.90;;;;;;4984492;28;20424;-74
2021/08/07 09:25:00;;;;;;;0.60;0.60;;;27.10;99.90;;;;;;4983462;28;20399;-75
2021/08/07 09:27:46;;;;;;;0.65;0.65;;;27.00;99.90;;;;;;4985611;28;20430;-75
2021/08/07 09:30:18;;;;;;;0.73;0.73;;;27.00;99.90;;;;;;4991991;28;20751;-75
2021/08/07 09:32:51;;;;;;;0.70;0.70;;;26.80;99.90;;;;;;5002128;28;20404;-74
2021/08/07 09:35:21;;;;;;;0.60;0.60;;;26.60;99.90;;;;;;4970871;28;21042;-74
2021/08/07 09:38:02;;;;;;;0.70;0.70;;;26.70;99.90;;;;;;4966200;28;21007;-74
2021/08/07 09:40:37;;;;;;;0.52;0.52;;;26.80;99.90;;;;;;4996007;28;20410;-74
2021/08/07 09:43:03;;;;;;;2.10;0.60;;;26.70;99.90;;;;;;4970017;28;20505;-75
2021/08/07 09:45:29;;;;;;;0.80;0.80;;;26.70;99.90;;;;;;4969605;28;21000;-74
2021/08/07 09:47:59;;;;;;;0.60;0.60;;;26.60;99.90;;;;;;4953079;28;20388;-75
2021/08/07 09:50:27;;;;;;;1.23;0.63;;;26.70;99.90;;;;;;4966338;28;20401;-75
2021/08/07 09:52:58;;;;;;;0.60;0.60;;;27.00;99.90;;;;;;4973711;28;20393;-74
2021/08/07 09:55:25;;;;;;;3.10;0.90;;;27.20;99.90;;;;;;4986984;28;20786;-74
2021/08/07 09:58:08;;;;;;;0.80;0.80;;;27.40;99.90;;;;;;4986087;28;20425;-74
2021/08/07 10:00:42;;;;;;;0.60;0.60;;;27.60;99.90;;;;;;4972108;28;20396;-75
2021/08/07 10:03:28;;;;;;;0.70;0.70;;;27.80;99.90;;;;;;4974572;28;20757;-75
2021/08/07 10:06:18;;;;;;;0.80;0.80;;;27.80;99.90;;;;;;4984004;28;20444;-75
2021/08/07 10:08:49;;;;;;;0.70;0.70;;;27.90;99.90;;;;;;4971481;28;20404;-75
2021/08/07 10:11:20;;;;;;;0.60;0.60;;;28.00;99.90;;;;;;4987565;28;20415;-75
2021/08/07 10:13:46;;;;;;;0.75;0.75;;;28.20;99.90;;;;;;5003150;28;20980;-75
2021/08/07 10:16:19;;;;;;;0.70;0.70;;;28.40;99.90;;;;;;4971731;28;20396;-74
2021/08/07 10:18:45;;;;;;;0.80;0.80;;;28.50;99.90;;;;;;4972878;28;20476;-75
2021/08/07 10:21:12;;;;;;;0.63;0.63;;;28.70;99.90;;;;;;4972007;28;20826;-76
2021/08/07 10:23:38;;;;;;;0.50;0.50;;;28.70;99.90;;;;;;4990548;28;20437;-75
2021/08/07 10:26:04;;;;;;;0.65;0.65;;;28.90;99.90;;;;;;4969982;28;20868;-76
2021/08/07 10:28:31;;;;;;;0.70;0.70;;;29.00;99.90;;;;;;4978750;28;20407;-75
2021/08/07 10:30:58;;;;;;;0.75;0.50;;;28.90;99.90;;;;;;4971168;28;20461;-76
2021/08/07 10:33:25;;;;;;;0.60;0.60;;;28.90;99.90;;;;;;4975934;28;21106;-76
2021/08/07 10:35:53;;;;;;;0.60;0.60;;;28.90;99.90;;;;;;4998234;28;20548;-74
2021/08/07 10:38:19;;;;;;;0.90;0.90;;;28.80;99.90;;;;;;4971805;28;20447;-76
2021/08/07 10:40:47;;;;;;;1.40;1.30;;;29.10;99.90;;;;;;5001268;28;20890;-76
2021/08/07 10:43:13;;;;;;;0.87;0.87;;;29.40;99.90;;;;;;4998267;28;20397;-76
2021/08/07 10:45:43;;;;;;;0.77;0.63;;;29.30;99.90;;;;;;4972608;28;20901;-75
2021/08/07 10:48:37;;;;;;;0.60;0.60;;;29.40;99.90;;;;;;4977635;28;20431;-76
2021/08/07 10:51:29;;;;;;;0.70;0.70;;;29.70;99.90;;;;;;4970476;28;20396;-75
2021/08/07 10:54:05;;;;;;;0.52;0.52;;;30.20;99.90;;;;;;4998673;28;20387;-76
2021/08/07 10:56:31;;;;;;;0.50;0.50;;;30.30;99.90;;;;;;4977565;28;20396;-74
2021/08/07 10:59:17;;;;;;;0.50;0.50;;;30.40;99.90;;;;;;5019829;28;20405;-75
2021/08/07 11:01:44;;;;;;;0.60;0.60;;;30.40;99.30;;;;;;4973532;28;20455;-76
2021/08/07 11:04:46;;;;;;;0.60;0.60;;;30.30;99.90;;;;;;4988527;28;20821;-76
2021/08/07 11:07:17;;;;;;;0.50;0.50;;;30.30;99.90;;;;;;4972753;28;20429;-76
2021/08/07 11:09:44;;;;;;;0.60;0.60;;;30.50;99.90;;;;;;5003730;28;20895;-76
2021/08/07 11:12:13;;;;;;;0.52;0.52;;;30.50;99.90;;;;;;4959448;28;20463;-75
2021/08/07 11:14:47;;;;;;;0.65;0.65;;;30.50;99.60;;;;;;4998456;28;20414;-75
2021/08/07 11:17:12;;;;;;;0.55;0.55;;;30.60;99.30;;;;;;4981898;28;20483;-75
2021/08/07 11:20:00;;;;;;;0.53;0.53;;;30.90;99.10;;;;;;5004813;28;20968;-75
2021/08/07 11:22:31;;;;;;;0.50;0.50;;;31.10;99.80;;;;;;4987709;28;20405;-76
2021/08/07 11:25:03;;;;;;;0.50;0.50;;;31.10;97.40;;;;;;4988434;28;20749;-77
2021/08/07 11:27:55;;;;;;;0.68;0.68;;;31.20;99.90;;;;;;5001247;28;20400;-76
2021/08/07 11:30:36;;;;;;;0.70;0.70;;;31.30;94.80;;;;;;4978414;28;20422;-75
2021/08/07 11:33:13;;;;;;;2.00;0.77;;;31.30;97.10;;;;;;4979122;28;20418;-75
2021/08/07 11:35:39;;;;;;;0.57;0.57;;;31.50;98.90;;;;;;4978829;28;20810;-76
2021/08/07 11:38:23;;;;;;;1.40;0.80;;;31.70;96.30;;;;;;5001317;28;20419;-75
2021/08/07 11:40:52;;;;;;;0.57;0.57;;;32.00;96.50;;;;;;4986684;28;20440;-76
2021/08/07 11:43:32;;;;;;;0.70;0.70;;;32.10;93.40;;;;;;4990385;28;20389;-75
2021/08/07 11:45:59;;;;;;;0.52;0.52;;;32.30;92.70;;;;;;4991133;28;20419;-76
2021/08/07 11:48:25;;;;;;;0.90;0.80;;;32.30;94.50;;;;;;4996497;28;20391;-76
2021/08/07 11:50:51;;;;;;;0.70;0.70;;;32.10;89.60;;;;;;4980219;28;20432;-75
2021/08/07 11:53:19;;;;;;;0.97;0.90;;;32.00;92.20;;;;;;4971827;28;20432;-76
2021/08/07 11:55:44;;;;;;;0.50;0.50;;;32.10;94.30;;;;;;4969919;28;20412;-76
2021/08/07 11:58:15;;;;;;;0.63;0.63;;;32.10;91.90;;;;;;5003353;28;20397;-76
2021/08/07 12:00:40;;;;;;;1.30;0.75;;;32.00;90.70;;;;;;4971580;28;20424;-75
2021/08/07 12:03:07;;;;;;;0.55;0.55;;;32.20;91.60;;;;;;4968711;28;20920;-76
2021/08/07 12:05:34;;;;;;;0.57;0.57;;;32.30;90.50;;;;;;4966985;28;20391;-76
2021/08/07 12:08:02;;;;;;;0.57;0.50;;;32.20;90.30;;;;;;5001739;28;20385;-76
2021/08/07 12:10:28;;;;;;;0.50;0.50;;;31.80;88.30;;;;;;4984702;28;20431;-76
2021/08/07 12:12:54;;;;;;;0.50;0.50;;;31.40;86.70;;;;;;4996763;28;20391;-75
2021/08/07 12:15:20;;;;;;;0.50;0.50;;;31.00;90.00;;;;;;4969946;28;20459;-76
2021/08/07 12:17:46;;;;;;;1.60;0.70;;;31.00;92.90;;;;;;4998842;28;20947;-76
2021/08/07 12:20:12;;;;;;;0.40;0.40;;;31.20;93.00;;;;;;4969980;28;20452;-76
2021/08/07 12:23:00;;;;;;;3.42;0.70;;;31.40;91.60;;;;;;4985323;28;20414;-75
2021/08/07 12:25:26;;;;;;;0.60;0.60;;;31.40;89.70;;;;;;4995837;28;20397;-76
2021/08/07 12:28:17;;;;;;;0.50;0.50;;;31.10;89.40;;;;;;4968927;28;20421;-75
2021/08/07 12:31:08;;;;;;;0.60;0.60;;;30.90;89.60;;;;;;4990591;28;20435;-76
2021/08/07 12:33:40;;;;;;;0.65;0.65;;;30.80;91.10;;;;;;4971477;28;20411;-76
2021/08/07 12:36:16;;;;;;;0.68;0.68;;;30.70;90.00;;;;;;4968528;28;20434;-77
2021/08/07 12:38:51;;;;;;;0.60;0.60;;;30.50;90.80;;;;;;4972956;28;20408;-76
2021/08/07 12:41:19;;;;;;;0.57;0.57;;;30.20;86.00;;;;;;4983712;28;20427;-76
2021/08/07 12:43:45;;;;;;;0.70;0.70;;;29.90;88.40;;;;;;5013493;28;20422;-76
2021/08/07 12:46:13;;;;;;;0.50;0.50;;;29.80;91.20;;;;;;4968381;28;20924;-75
2021/08/07 12:49:01;;;;;;;0.43;0.43;;;30.30;89.70;;;;;;4982294;28;20414;-75
2021/08/07 12:51:30;;;;;;;0.47;0.47;;;30.50;85.50;;;;;;4966580;28;20451;-76
2021/08/07 12:53:59;;;;;;;0.60;0.60;;;30.80;90.60;;;;;;4985887;28;20404;-76
2021/08/07 12:56:29;;;;;;;0.50;0.50;;;30.10;85.20;;;;;;5000138;28;20396;-76
2021/08/07 12:59:07;;;;;;;0.47;0.47;;;29.70;86.60;;;;;;4996110;28;20972;-76